Weather Data

Pearl Creek Farm: 8878 N Farm Road 75, Walnut Grove MO 65770

<== Previous Day (Monday 25 Apr 2016) | Next Day (Wednesday 27 Apr 2016) ==>

Summary Precipitation Data For Tuesday 26 April 2016

ElementValueUnits
Precipitation0"
Notes(none)
SourcePearl Creek Farm

Summary Temperature Data For Tuesday 26 April 2016

ElementValueUnits
High Temperature83 oF
Low Temperature66 oF
Average Temperature71 oF
High Humidity87 %
Low Humidity55 %
Average Humidity74 %
SourceSpringfield-Branson National Airport (SGF)

Detail Temperature Data For Tuesday 26 April 2016

Date / TimeTemp (F)RH (%)Dew Pt (F)Report Date / TimeSource
2016-04-26 14:52:00 69 68 58.0 2017-12-29 17:00:26.17417 Springfield-Branson National Airport (SGF)
2016-04-26 15:52:00 67 84 62.0 2017-12-29 17:00:26.17417 Springfield-Branson National Airport (SGF)
2016-04-26 00:52:00 68 76 60.0 2017-12-29 17:00:26.17417 Springfield-Branson National Airport (SGF)
2016-04-26 01:52:00 67 81 61.0 2017-12-29 17:00:26.17417 Springfield-Branson National Airport (SGF)
2016-04-26 02:52:00 67 81 61.0 2017-12-29 17:00:26.17417 Springfield-Branson National Airport (SGF)
2016-04-26 03:52:00 66 84 61.0 2017-12-29 17:00:26.17417 Springfield-Branson National Airport (SGF)
2016-04-26 04:52:00 66 87 62.0 2017-12-29 17:00:26.17417 Springfield-Branson National Airport (SGF)
2016-04-26 05:52:00 67 84 62.0 2017-12-29 17:00:26.17417 Springfield-Branson National Airport (SGF)
2016-04-26 06:52:00 69 81 63.0 2017-12-29 17:00:26.17417 Springfield-Branson National Airport (SGF)
2016-04-26 07:52:00 72 76 64.0 2017-12-29 17:00:26.17417 Springfield-Branson National Airport (SGF)
2016-04-26 08:52:00 74 74 65.0 2017-12-29 17:00:26.17417 Springfield-Branson National Airport (SGF)
2016-04-26 09:52:00 75 71 65.0 2017-12-29 17:00:26.17417 Springfield-Branson National Airport (SGF)
2016-04-26 10:52:00 77 69 66.0 2017-12-29 17:00:26.17417 Springfield-Branson National Airport (SGF)
2016-04-26 11:52:00 80 62 66.0 2017-12-29 17:00:26.17417 Springfield-Branson National Airport (SGF)
2016-04-26 12:52:00 82 58 66.0 2017-12-29 17:00:26.17417 Springfield-Branson National Airport (SGF)
2016-04-26 13:52:00 83 55 65.0 2017-12-29 17:00:26.17417 Springfield-Branson National Airport (SGF)
2016-04-26 16:52:00 68 81 62.0 2017-12-29 17:00:26.17417 Springfield-Branson National Airport (SGF)
2016-04-26 17:52:00 69 66 57.0 2017-12-29 17:00:26.17417 Springfield-Branson National Airport (SGF)
2016-04-26 18:52:00 69 59 54.0 2017-12-29 17:00:26.17417 Springfield-Branson National Airport (SGF)
2016-04-26 19:52:00 68 70 58.0 2017-12-29 17:00:26.17417 Springfield-Branson National Airport (SGF)
2016-04-26 20:52:00 67 73 58.0 2017-12-29 17:00:26.17417 Springfield-Branson National Airport (SGF)
2016-04-26 21:52:00 67 76 59.0 2017-12-29 17:00:26.17417 Springfield-Branson National Airport (SGF)
2016-04-26 22:52:00 67 79 60.0 2017-12-29 17:00:26.17417 Springfield-Branson National Airport (SGF)
2016-04-26 23:52:00 69 76 61.0 2017-12-29 17:00:26.17417 Springfield-Branson National Airport (SGF)

A total of 24 rows are displayed.